Main page
METAR-TAF:

METAR-TAF

Airports :

Aeroporto di Cameri

Novara, Italy

latitude: 45-31N, longitude: 008-40E, elevation: 178 m

Current weather observation

The report was made 22 hours and 36 minutes ago, at 17:55 UTC
Wind 4 kt from the Southeast
Temperature 15°C
Humidity 36%
Pressure 1014 hPa
Visibility 10 km or more
no clouds below 1500 m and no cumulonimbus

METAR: LIMN 031755Z 14004KT CAVOK 15/00 Q1014 RMK SKC VIS MIN 9999 BLU

Time: 18:31 (16:31 UTC)

Forecast

The report was made 23 hours and 31 minutes ago, at 17:00 UTC
Forecast valid from 03 at 18 UTC to 04 at 03 UTC
Wind 3 kt from variable directions
Visibility 10 km or more
no clouds below 1500 m and no cumulonimbus

TAF: LIMN 031700Z 0318/0403 VRB03KT CAVOK

Weather observations and forecasts of more than 4000 airports (METAR and TAF reports).

The available stations are represented by yellow and red dots on the map.

Hover mouse over dot to see the name of the station.

Then click to see weather observations and forecasts.

To change the map : click on the green buttons with a black cross to zoom in, on the green button with a dash to zoom out, or on the green arrows for adjacent maps.


METAR-TAF: